Time;durP1;ratioP1;P1;durP2;ratioP2;P2;SDS_P1;SDS_P2;PMS_P1;PMS_P2;Temp;Humidity;BMP_temperature;BMP_pressure;BME280_temperature;BME280_humidity;BME280_pressure;Samples;Min_cycle;Max_cycle;Signal;HPM_P1;HPM_P2
2022/03/18 00:00:33;;;;;;;1351.03;999.90;;;;;;;0.68;100.00;103157.06;5026063;28;20048;-81
2022/03/18 00:03:07;;;;;;;1352.45;999.90;;;;;;;0.68;100.00;103159.75;5036948;28;20524;-81
2022/03/18 00:05:36;;;;;;;1351.45;999.90;;;;;;;0.58;100.00;103160.78;5042298;28;20045;-81
2022/03/18 00:08:11;;;;;;;1353.65;999.90;;;;;;;0.59;100.00;103159.81;5026374;28;20427;-81
2022/03/18 00:10:45;;;;;;;1355.72;999.90;;;;;;;0.67;100.00;103154.53;5016466;28;20049;-81
2022/03/18 00:13:13;;;;;;;1355.93;999.90;;;;;;;0.56;100.00;103160.94;5026508;28;20509;-81
2022/03/18 00:15:46;;;;;;;1358.97;999.90;;;;;;;0.62;100.00;103165.72;5020947;28;20050;-80
2022/03/18 00:18:21;;;;;;;1360.05;999.90;;;;;;;0.58;100.00;103166.16;5023866;28;20053;-81
2022/03/18 00:20:49;;;;;;;1362.78;999.90;;;;;;;0.55;100.00;103171.81;5034818;28;20418;-81
2022/03/18 00:23:17;;;;;;;1361.75;999.90;;;;;;;0.52;100.00;103172.13;5018306;28;20076;-81
2022/03/18 00:25:45;;;;;;;1364.03;999.90;;;;;;;0.54;100.00;103179.03;5040860;28;20742;-80
2022/03/18 00:28:18;;;;;;;1363.43;999.90;;;;;;;0.55;100.00;103187.91;5028831;28;20141;-81
2022/03/18 00:30:52;;;;;;;1365.82;999.90;;;;;;;0.46;100.00;103187.81;5026658;28;20045;-81
2022/03/18 00:33:27;;;;;;;1366.75;999.90;;;;;;;0.42;100.00;103188.28;5014788;28;20050;-81
2022/03/18 00:36:00;;;;;;;1368.88;999.90;;;;;;;0.39;100.00;103188.56;5015150;28;20061;-81
2022/03/18 00:38:29;;;;;;;1368.15;999.90;;;;;;;0.33;100.00;103190.84;5014010;28;20061;-81
2022/03/18 00:40:57;;;;;;;1372.35;999.90;;;;;;;0.38;100.00;103186.88;5034185;28;20118;-80
2022/03/18 00:43:31;;;;;;;1372.78;999.90;;;;;;;0.44;100.00;103180.91;5034119;28;20729;-81
2022/03/18 00:46:06;;;;;;;1372.38;999.90;;;;;;;0.53;100.00;103190.72;5034300;28;20046;-80
2022/03/18 00:54:22;;;;;;;1372.70;999.90;;;;;;;0.48;100.00;103187.66;5033794;28;20482;-81
2022/03/18 00:56:55;;;;;;;1377.68;999.90;;;;;;;0.43;100.00;103187.25;5035068;28;20052;-80
2022/03/18 00:59:28;;;;;;;1374.28;999.90;;;;;;;0.29;100.00;103185.94;5033971;28;20056;-81
2022/03/18 01:02:02;;;;;;;1374.63;999.90;;;;;;;0.23;100.00;103183.88;5030098;28;20748;-81
2022/03/18 01:04:36;;;;;;;1377.05;999.90;;;;;;;0.19;100.00;103183.31;5015178;28;20057;-81
2022/03/18 01:07:05;;;;;;;1379.95;999.90;;;;;;;0.16;100.00;103176.41;5035499;28;20049;-81
2022/03/18 01:09:38;;;;;;;1381.40;999.90;;;;;;;0.19;100.00;103180.63;5037324;28;20053;-81
2022/03/18 01:12:12;;;;;;;1380.32;999.90;;;;;;;0.23;100.00;103178.50;5023978;28;20406;-81
2022/03/18 01:14:40;;;;;;;1382.35;999.90;;;;;;;0.14;100.00;103166.88;5016385;28;20046;-81
2022/03/18 01:17:13;;;;;;;1384.75;999.90;;;;;;;0.15;100.00;103181.91;5025500;28;20050;-81
2022/03/18 01:19:47;;;;;;;1385.75;999.90;;;;;;;0.13;100.00;103183.91;5020644;28;20037;-81
2022/03/18 01:22:21;;;;;;;1386.07;999.90;;;;;;;0.20;100.00;103184.16;5033248;28;20056;-81
2022/03/18 01:24:54;;;;;;;1390.43;999.90;;;;;;;0.20;100.00;103187.69;5032761;28;20441;-81
2022/03/18 01:27:27;;;;;;;1388.55;999.90;;;;;;;0.22;100.00;103192.88;5013022;28;20065;-80
2022/03/18 01:29:55;;;;;;;1390.22;999.90;;;;;;;0.18;100.00;103192.34;5015476;28;20049;-81
2022/03/18 01:32:29;;;;;;;1389.80;999.90;;;;;;;0.15;100.00;103204.19;5032394;28;20045;-81
2022/03/18 01:35:04;;;;;;;1390.32;999.90;;;;;;;0.17;100.00;103202.19;5034270;28;20053;-81
2022/03/18 01:37:37;;;;;;;1389.88;999.90;;;;;;;0.11;100.00;103199.25;5025343;28;20406;-81
2022/03/18 01:40:06;;;;;;;1386.55;999.90;;;;;;;0.04;100.00;103195.50;5014644;28;20045;-81
2022/03/18 01:42:34;;;;;;;1389.80;999.90;;;;;;;-0.05;100.00;103195.38;5014454;28;20486;-83
2022/03/18 01:45:03;;;;;;;1386.18;999.90;;;;;;;-0.08;100.00;103192.19;5013457;28;20067;-81
2022/03/18 01:47:31;;;;;;;1389.82;999.90;;;;;;;-0.07;100.00;103192.03;5032322;28;20049;-81
2022/03/18 01:50:06;;;;;;;1389.82;999.90;;;;;;;-0.10;100.00;103200.34;5032877;28;20045;-81
2022/03/18 01:52:40;;;;;;;1397.18;999.90;;;;;;;-0.22;100.00;103191.66;5032834;28;20520;-81
2022/03/18 01:55:14;;;;;;;1408.85;999.90;;;;;;;-0.13;100.00;103199.81;5027048;28;20042;-81
2022/03/18 01:57:47;;;;;;;1410.35;999.90;;;;;;;-0.08;100.00;103206.41;5027003;28;20046;-81
2022/03/18 02:00:21;;;;;;;1416.57;999.90;;;;;;;-0.09;100.00;103201.19;5019190;28;20049;-82
2022/03/18 02:02:54;;;;;;;1419.03;999.90;;;;;;;-0.15;100.00;103202.63;5033439;28;20072;-81
2022/03/18 02:05:29;;;;;;;1433.22;999.90;;;;;;;0.05;100.00;103215.94;5039088;28;20049;-81
2022/03/18 02:08:06;;;;;;;1432.97;999.90;;;;;;;0.13;100.00;103219.56;5023983;28;20057;-81
2022/03/18 02:10:35;;;;;;;1427.45;999.90;;;;;;;0.06;100.00;103218.47;5019594;28;20044;-81
2022/03/18 02:13:08;;;;;;;1424.70;999.90;;;;;;;-0.06;100.00;103211.59;5022142;28;20038;-81
2022/03/18 02:15:36;;;;;;;1429.15;999.90;;;;;;;0.04;100.00;103222.28;5029953;28;20038;-81
2022/03/18 02:18:09;;;;;;;1434.32;999.90;;;;;;;0.02;100.00;103219.75;5033385;28;20048;-82
2022/03/18 02:20:44;;;;;;;1432.18;999.90;;;;;;;0.11;100.00;103226.03;5030582;28;20045;-81
2022/03/18 02:23:19;;;;;;;1427.47;999.90;;;;;;;0.10;100.00;103232.41;5036672;28;20061;-81
2022/03/18 02:25:52;;;;;;;1426.95;999.90;;;;;;;0.08;100.00;103239.72;5015870;28;20054;-81
2022/03/18 02:28:20;;;;;;;1433.70;999.90;;;;;;;0.22;100.00;103243.75;5025299;28;20061;-81
2022/03/18 02:30:48;;;;;;;1431.43;999.90;;;;;;;0.22;100.00;103249.97;5023095;28;20116;-82
2022/03/18 02:33:17;;;;;;;1425.43;999.90;;;;;;;0.26;100.00;103243.34;5030484;28;20049;-81
2022/03/18 02:35:53;;;;;;;1427.95;999.90;;;;;;;0.25;100.00;103251.50;5030281;28;20084;-81
2022/03/18 02:38:23;;;;;;;1425.25;999.90;;;;;;;0.09;100.00;103255.66;5030839;28;20053;-81
2022/03/18 02:40:51;;;;;;;1429.32;999.90;;;;;;;0.08;100.00;103264.66;5024902;28;20053;-81
2022/03/18 02:43:19;;;;;;;1431.95;999.90;;;;;;;0.09;100.00;103255.66;5034981;28;20045;-81
2022/03/18 02:45:52;;;;;;;1430.45;999.90;;;;;;;-0.02;100.00;103245.13;5021998;28;20049;-81
2022/03/18 02:48:25;;;;;;;1434.40;999.90;;;;;;;0.02;100.00;103262.59;5049823;28;20370;-82
2022/03/18 02:50:58;;;;;;;1442.97;999.90;;;;;;;0.15;100.00;103264.94;5030466;28;20045;-81
2022/03/18 02:53:33;;;;;;;1442.80;999.90;;;;;;;0.15;100.00;103262.25;5032954;28;20049;-81
2022/03/18 02:56:07;;;;;;;1442.18;999.90;;;;;;;-0.02;100.00;103266.53;5028070;28;20071;-81
2022/03/18 02:58:36;;;;;;;1444.10;999.90;;;;;;;0.07;100.00;103280.88;5025182;28;20050;-81
2022/03/18 03:01:09;;;;;;;1445.63;999.90;;;;;;;0.06;100.00;103285.41;5017955;28;20065;-81
2022/03/18 03:03:37;;;;;;;1444.65;999.90;;;;;;;-0.04;100.00;103285.44;5026419;28;20048;-81
2022/03/18 03:09:03;;;;;;;1452.50;999.90;;;;;;;0.01;100.00;103284.97;5024294;28;20050;-81
2022/03/18 03:11:31;;;;;;;1457.95;999.90;;;;;;;0.05;100.00;103283.72;5019732;28;20042;-81
2022/03/18 03:14:04;;;;;;;1455.65;999.90;;;;;;;0.05;100.00;103289.06;5028230;28;20057;-81
2022/03/18 03:16:32;;;;;;;1458.20;999.90;;;;;;;0.09;100.00;103292.31;5019795;28;20054;-81
2022/03/18 03:19:05;;;;;;;1457.95;999.90;;;;;;;0.01;100.00;103298.38;5021239;28;20053;-80
2022/03/18 03:21:38;;;;;;;1458.10;999.90;;;;;;;-0.01;100.00;103297.69;5025973;28;20048;-81
2022/03/18 03:24:13;;;;;;;1461.32;999.90;;;;;;;-0.06;100.00;103307.97;5029244;28;20053;-81
2022/03/18 03:26:46;;;;;;;1460.10;999.90;;;;;;;-0.11;100.00;103319.13;5023276;28;20406;-81
2022/03/18 03:29:19;;;;;;;1466.63;999.90;;;;;;;-0.14;100.00;103319.38;5020577;28;20057;-81
2022/03/18 03:31:52;;;;;;;1469.82;999.90;;;;;;;-0.22;100.00;103325.47;5024750;28;20057;-81
2022/03/18 03:34:20;;;;;;;1474.88;999.90;;;;;;;-0.21;100.00;103326.31;5021167;28;20064;-81
2022/03/18 03:36:48;;;;;;;1480.57;999.90;;;;;;;-0.33;100.00;103317.59;5024160;28;20065;-81
2022/03/18 03:39:23;;;;;;;1482.10;999.90;;;;;;;-0.28;100.00;103327.88;5022306;28;20053;-81
2022/03/18 03:41:51;;;;;;;1482.20;999.90;;;;;;;-0.36;100.00;103326.75;5030853;28;20069;-83
2022/03/18 03:44:24;;;;;;;1486.50;999.90;;;;;;;-0.41;100.00;103331.69;5026178;28;20498;-82
2022/03/18 03:46:52;;;;;;;1490.18;999.90;;;;;;;-0.49;100.00;103320.84;5033044;28;20501;-82
2022/03/18 03:49:25;;;;;;;1490.03;999.90;;;;;;;-0.25;100.00;103332.94;5017079;28;20053;-82
2022/03/18 03:51:53;;;;;;;1491.82;999.90;;;;;;;-0.30;100.00;103329.81;5032634;28;20489;-82
2022/03/18 03:54:28;;;;;;;1494.82;999.90;;;;;;;-0.33;100.00;103324.75;5021006;28;20065;-82
2022/03/18 03:57:01;;;;;;;1497.57;999.90;;;;;;;-0.44;100.00;103325.75;5024395;28;20383;-83
2022/03/18 03:59:29;;;;;;;1504.10;999.90;;;;;;;-0.52;100.00;103338.00;5028560;28;20042;-82
2022/03/18 04:02:03;;;;;;;1504.03;999.90;;;;;;;-0.57;100.00;103345.59;5034731;28;20048;-83
2022/03/18 04:04:36;;;;;;;1502.28;999.90;;;;;;;-0.69;100.00;103344.91;5031640;28;20493;-83
2022/03/18 04:07:09;;;;;;;1505.63;999.90;;;;;;;-0.81;100.00;103340.66;5030787;28;20049;-83
2022/03/18 04:09:44;;;;;;;1500.10;999.90;;;;;;;-0.79;100.00;103354.72;5028370;28;20037;-83
2022/03/18 04:12:17;;;;;;;1493.55;999.90;;;;;;;-0.95;100.00;103370.44;5033162;28;20052;-83
2022/03/18 04:14:51;;;;;;;1488.60;999.90;;;;;;;-1.14;100.00;103366.75;5030284;28;20056;-83
2022/03/18 04:17:26;;;;;;;1492.55;999.90;;;;;;;-1.17;100.00;103377.72;5023378;28;20054;-82
2022/03/18 04:19:54;;;;;;;1494.30;999.90;;;;;;;-1.47;100.00;103378.56;5030090;28;20060;-83
2022/03/18 04:22:27;;;;;;;1505.85;999.90;;;;;;;-1.52;100.00;103394.97;5024119;28;20552;-82
2022/03/18 04:25:02;;;;;;;1524.38;999.90;;;;;;;-1.71;100.00;103395.72;5028298;28;20046;-82
2022/03/18 04:27:35;;;;;;;1540.15;999.90;;;;;;;-1.69;100.00;103388.41;5023174;28;20049;-82
2022/03/18 04:30:11;;;;;;;1556.85;999.90;;;;;;;-1.64;100.00;103383.53;5030151;28;20054;-82
2022/03/18 04:32:44;;;;;;;1569.95;999.90;;;;;;;-1.73;100.00;103400.31;5033662;28;20057;-82
2022/03/18 04:35:17;;;;;;;1578.43;999.90;;;;;;;-1.81;100.00;103382.31;5035383;28;20054;-82
2022/03/18 04:37:45;;;;;;;1586.90;999.90;;;;;;;-1.64;100.00;103412.03;5040666;28;20464;-82
2022/03/18 04:40:15;;;;;;;1595.63;999.90;;;;;;;-1.72;100.00;103408.19;5031458;28;20491;-82
2022/03/18 04:42:48;;;;;;;1596.57;999.90;;;;;;;-1.57;100.00;103407.88;5033396;28;20060;-82
2022/03/18 04:45:22;;;;;;;1600.43;999.90;;;;;;;-1.48;100.00;103411.59;5041797;28;20500;-82
2022/03/18 04:47:55;;;;;;;1597.90;999.90;;;;;;;-1.58;100.00;103415.03;5025377;28;20699;-82
2022/03/18 04:50:29;;;;;;;1601.25;999.90;;;;;;;-1.58;100.00;103411.53;5023971;28;20414;-81
2022/03/18 04:53:02;;;;;;;1595.90;999.90;;;;;;;-1.57;100.00;103421.25;5031144;28;20041;-81
2022/03/18 04:55:31;;;;;;;1594.95;999.90;;;;;;;-1.65;100.00;103407.69;5039945;28;20045;-82
2022/03/18 04:57:59;;;;;;;1594.43;999.90;;;;;;;-1.61;100.00;103417.13;5037340;28;20108;-82
2022/03/18 05:00:28;;;;;;;1596.35;999.90;;;;;;;-1.61;100.00;103415.31;5028255;28;20049;-82
2022/03/18 05:02:56;;;;;;;1592.00;999.90;;;;;;;-1.82;100.00;103420.66;5032982;28;20054;-81
2022/03/18 05:05:24;;;;;;;1596.72;999.90;;;;;;;-1.80;100.00;103421.34;5038158;28;20053;-81
2022/03/18 05:07:58;;;;;;;1600.22;999.90;;;;;;;-1.65;100.00;103435.22;5027066;28;20058;-81
2022/03/18 05:10:33;;;;;;;1595.32;999.90;;;;;;;-1.60;100.00;103442.84;5030226;28;20041;-81
2022/03/18 05:13:06;;;;;;;1591.25;999.90;;;;;;;-1.61;100.00;103431.31;5037536;28;20050;-81
2022/03/18 05:15:39;;;;;;;1593.25;999.90;;;;;;;-1.50;100.00;103432.25;5019021;28;20058;-81
2022/03/18 05:18:12;;;;;;;1586.07;999.90;;;;;;;-1.46;100.00;103434.50;5024976;28;20061;-81
2022/03/18 05:20:45;;;;;;;1580.68;999.90;;;;;;;-1.47;100.00;103423.97;5048750;28;20056;-81
2022/03/18 05:23:18;;;;;;;1575.05;999.90;;;;;;;-1.50;100.00;103426.91;5020376;28;20056;-80
2022/03/18 05:25:53;;;;;;;1566.72;999.90;;;;;;;-1.33;100.00;103428.94;5031631;28;20049;-81
2022/03/18 05:28:26;;;;;;;1554.88;999.90;;;;;;;-1.23;100.00;103443.22;5030552;28;20437;-81
2022/03/18 05:30:59;;;;;;;1549.75;999.90;;;;;;;-1.06;100.00;103451.59;5027244;28;20049;-81
2022/03/18 05:33:27;;;;;;;1534.85;999.90;;;;;;;-1.08;100.00;103456.22;5029510;28;20049;-81
2022/03/18 05:36:00;;;;;;;1520.82;999.90;;;;;;;-1.00;100.00;103464.41;5017655;28;20092;-81
2022/03/18 05:38:33;;;;;;;1512.88;999.90;;;;;;;-0.97;100.00;103465.97;5022000;28;20042;-81
2022/03/18 05:41:09;;;;;;;1506.35;999.90;;;;;;;-0.94;100.00;103463.91;5029088;28;20045;-81
2022/03/18 05:43:42;;;;;;;1490.05;999.90;;;;;;;-0.87;100.00;103470.41;5023334;28;20696;-81
2022/03/18 05:46:15;;;;;;;1484.80;999.90;;;;;;;-0.73;100.00;103479.03;5032316;28;20053;-81
2022/03/18 05:48:44;;;;;;;1486.57;999.90;;;;;;;-0.77;100.00;103486.47;5028476;28;20045;-82
2022/03/18 05:51:18;;;;;;;1481.05;999.90;;;;;;;-0.75;100.00;103491.69;5031300;28;20041;-82
2022/03/18 05:53:47;;;;;;;1481.03;999.90;;;;;;;-0.82;100.00;103483.34;5030879;28;20045;-81
2022/03/18 05:59:05;;;;;;;;;;;;;;;-0.66;100.00;103503.38;5021509;28;20502;-81
2022/03/18 06:01:39;;;;;;;1488.85;999.90;;;;;;;-0.58;100.00;103493.72;5030724;28;20243;-81
2022/03/18 06:04:14;;;;;;;1491.57;999.90;;;;;;;-0.63;100.00;103489.78;5034319;28;20063;-81
2022/03/18 06:06:47;;;;;;;1496.97;999.90;;;;;;;-0.52;100.00;103501.19;5031671;28;20034;-81
2022/03/18 06:12:10;;;;;;;1498.40;999.90;;;;;;;-0.44;100.00;103503.19;5028746;28;20054;-81
2022/03/18 06:14:43;;;;;;;1507.65;999.90;;;;;;;-0.25;100.00;103505.06;5028939;28;20053;-81
2022/03/18 06:17:16;;;;;;;1502.03;999.90;;;;;;;-0.10;100.00;103510.03;5035401;28;20041;-82
2022/03/18 06:19:50;;;;;;;1501.32;999.90;;;;;;;-0.05;100.00;103503.25;5030714;28;20052;-82
2022/03/18 06:22:23;;;;;;;1506.95;999.90;;;;;;;0.16;100.00;103521.03;5046822;28;20405;-81
2022/03/18 06:24:56;;;;;;;1496.18;999.90;;;;;;;0.33;100.00;103525.69;5022648;28;20041;-81
2022/03/18 06:27:25;;;;;;;1482.72;999.90;;;;;;;0.39;100.00;103518.06;5022486;28;20053;-82
2022/03/18 06:29:58;;;;;;;1471.07;999.90;;;;;;;0.49;100.00;103524.28;5018785;28;20076;-82
2022/03/18 06:32:31;;;;;;;1481.05;999.90;;;;;;;0.44;100.00;103535.44;5027084;28;20055;-81
2022/03/18 06:35:05;;;;;;;1489.10;999.90;;;;;;;0.30;100.00;103520.63;5026231;28;20037;-82
2022/03/18 06:37:38;;;;;;;1507.75;999.90;;;;;;;0.29;100.00;103532.31;5022247;28;20041;-81
2022/03/18 06:40:08;;;;;;;1510.55;999.90;;;;;;;0.24;100.00;103531.06;5019979;28;20081;-81
2022/03/18 06:42:37;;;;;;;1539.30;999.90;;;;;;;0.19;100.00;103528.78;5030150;28;20050;-82
2022/03/18 06:45:06;;;;;;;1567.35;999.90;;;;;;;0.27;100.00;103528.09;5023450;28;20065;-81
2022/03/18 06:47:35;;;;;;;1582.53;999.90;;;;;;;0.22;100.00;103524.97;5026480;28;20050;-82
2022/03/18 06:50:09;;;;;;;1603.63;999.90;;;;;;;0.34;100.00;103543.44;5030279;28;20056;-82
2022/03/18 06:52:43;;;;;;;1622.40;999.90;;;;;;;0.38;100.00;103548.53;5029192;28;20033;-82
2022/03/18 06:55:16;;;;;;;1644.90;999.90;;;;;;;0.35;100.00;103541.63;5018718;28;20042;-82
2022/03/18 06:57:51;;;;;;;1666.40;999.90;;;;;;;0.48;100.00;103552.91;5024459;28;20049;-82
2022/03/18 07:00:19;;;;;;;1680.07;999.90;;;;;;;0.56;100.00;103552.19;5016158;28;20054;-82
2022/03/18 07:02:52;;;;;;;1694.65;999.90;;;;;;;0.68;100.00;103550.22;5018693;28;20422;-83
2022/03/18 07:05:27;;;;;;;1713.93;999.90;;;;;;;0.89;100.00;103558.09;5020190;28;20398;-83
2022/03/18 07:07:56;;;;;;;1729.13;999.90;;;;;;;1.27;100.00;103548.25;5026191;28;20057;-83
2022/03/18 07:10:29;;;;;;;1729.85;999.90;;;;;;;1.65;100.00;103541.00;5025460;28;20469;-83
2022/03/18 07:13:04;;;;;;;1719.38;999.90;;;;;;;1.85;100.00;103543.56;5022993;28;20053;-85
2022/03/18 07:15:37;;;;;;;1712.63;999.90;;;;;;;1.96;100.00;103547.88;5027312;28;20050;-81
2022/03/18 07:18:10;;;;;;;1755.47;999.90;;;;;;;2.14;100.00;103550.59;5021211;28;20041;-80
2022/03/18 07:20:43;;;;;;;1726.22;999.90;;;;;;;2.60;100.00;103548.66;5036745;28;20045;-82
2022/03/18 07:23:19;;;;;;;1703.88;999.90;;;;;;;2.79;100.00;103552.16;5021720;28;20344;-79
2022/03/18 07:25:52;;;;;;;1701.10;999.90;;;;;;;2.72;100.00;103549.25;5028382;28;20057;-81
2022/03/18 07:28:23;;;;;;;1706.38;999.90;;;;;;;2.99;100.00;103548.28;5025886;28;20053;-82
2022/03/18 07:30:56;;;;;;;1723.75;999.90;;;;;;;3.05;100.00;103541.41;5023056;28;20049;-78
2022/03/18 07:33:29;;;;;;;1734.25;999.90;;;;;;;3.28;100.00;103555.19;5018127;28;20045;-85
2022/03/18 07:36:04;;;;;;;1749.55;999.90;;;;;;;3.40;100.00;103558.44;5014277;28;20049;-81
2022/03/18 07:38:37;;;;;;;1771.78;999.90;;;;;;;3.64;100.00;103568.47;5022204;28;20536;-81
2022/03/18 07:41:05;;;;;;;1782.93;999.90;;;;;;;3.77;100.00;103553.69;5023994;28;20050;-80
2022/03/18 07:43:40;;;;;;;1803.88;999.90;;;;;;;3.94;100.00;103562.69;5033856;28;20064;-81
2022/03/18 07:46:08;;;;;;;1830.07;999.90;;;;;;;4.00;100.00;103570.94;5019231;28;20057;-79
2022/03/18 07:48:43;;;;;;;1856.20;999.90;;;;;;;4.18;100.00;103565.41;5025551;28;20045;-80
2022/03/18 07:51:16;;;;;;;1881.47;999.90;;;;;;;4.20;100.00;103560.72;5023167;28;20410;-79
2022/03/18 07:53:49;;;;;;;1920.43;999.90;;;;;;;4.25;100.00;103571.84;5024826;28;20053;-80
2022/03/18 07:56:22;;;;;;;1974.32;999.90;;;;;;;4.35;100.00;103573.53;5024039;28;20041;-81
2022/03/18 07:58:51;;;;;;;1999.90;999.90;;;;;;;4.34;100.00;103593.44;5016864;28;20053;-82
2022/03/18 08:01:25;;;;;;;1999.90;999.90;;;;;;;4.42;100.00;103593.47;5027224;28;20041;-81
2022/03/18 08:03:58;;;;;;;1999.90;999.90;;;;;;;4.42;100.00;103588.06;5024696;28;20042;-87
2022/03/18 08:06:32;;;;;;;1999.90;999.90;;;;;;;4.51;100.00;103595.13;5020255;28;20058;-80
2022/03/18 08:09:05;;;;;;;1999.90;999.90;;;;;;;4.57;100.00;103604.41;5006137;28;20054;-82
2022/03/18 08:11:34;;;;;;;1999.90;999.90;;;;;;;4.67;100.00;103606.94;5016219;28;20493;-81
2022/03/18 08:14:08;;;;;;;1999.90;999.90;;;;;;;4.70;100.00;103606.63;5003741;28;20061;-81
2022/03/18 08:16:36;;;;;;;1999.90;999.90;;;;;;;4.70;100.00;103607.44;4998529;28;20053;-82
2022/03/18 08:19:10;;;;;;;1999.90;999.90;;;;;;;4.77;100.00;103608.47;4997174;28;20075;-82
2022/03/18 08:21:43;;;;;;;1999.90;999.90;;;;;;;4.69;100.00;103597.66;5017350;28;20915;-82
2022/03/18 08:24:17;;;;;;;1999.90;999.90;;;;;;;4.87;100.00;103612.84;5001954;28;20053;-82
2022/03/18 08:26:45;;;;;;;1999.90;999.90;;;;;;;4.91;100.00;103619.59;4999133;28;20057;-79
2022/03/18 08:29:14;;;;;;;1999.90;999.90;;;;;;;4.97;100.00;103624.31;5017357;28;20053;-82
2022/03/18 08:31:47;;;;;;;1999.90;999.90;;;;;;;5.09;100.00;103632.91;5000659;28;20053;-81
2022/03/18 08:34:21;;;;;;;1999.90;999.90;;;;;;;5.19;100.00;103638.13;5000290;28;20058;-80
2022/03/18 08:36:50;;;;;;;1999.90;999.90;;;;;;;5.13;100.00;103641.53;5000480;28;20538;-80
2022/03/18 08:39:24;;;;;;;1999.90;999.90;;;;;;;5.17;100.00;103650.97;5004583;28;20057;-80
2022/03/18 08:41:57;;;;;;;1999.90;999.90;;;;;;;5.14;100.00;103654.84;5000331;28;20054;-80
2022/03/18 08:44:32;;;;;;;1999.90;999.90;;;;;;;5.11;100.00;103658.72;5003753;28;20065;-81
2022/03/18 08:47:06;;;;;;;1999.90;999.90;;;;;;;5.23;100.00;103679.97;5004456;28;20846;-81
2022/03/18 08:49:34;;;;;;;1999.90;999.90;;;;;;;5.28;100.00;103694.66;5003676;28;20065;-80
2022/03/18 08:52:07;;;;;;;1999.90;999.90;;;;;;;5.42;100.00;103689.59;5009649;28;20072;-82
2022/03/18 08:54:35;;;;;;;1999.90;999.90;;;;;;;5.42;100.00;103706.63;5011657;28;20053;-78
2022/03/18 08:57:04;;;;;;;1999.90;999.90;;;;;;;5.51;100.00;103704.78;5005129;28;20053;-81
2022/03/18 08:59:38;;;;;;;1999.90;999.90;;;;;;;5.57;100.00;103692.44;5012223;28;20053;-82
2022/03/18 09:02:07;;;;;;;1999.90;999.90;;;;;;;5.70;100.00;103714.34;5008013;28;20058;-79
2022/03/18 09:04:35;;;;;;;1999.90;999.90;;;;;;;5.70;100.00;103703.53;5008483;28;20045;-79
2022/03/18 09:07:08;;;;;;;1999.90;999.90;;;;;;;5.84;100.00;103718.22;4999951;28;20607;-80
2022/03/18 09:09:41;;;;;;;1999.90;999.90;;;;;;;5.92;100.00;103720.03;5006432;28;20063;-81
2022/03/18 09:12:17;;;;;;;1999.90;999.90;;;;;;;5.73;100.00;103710.44;5006266;28;20725;-82
2022/03/18 09:14:52;;;;;;;1999.90;999.90;;;;;;;5.98;100.00;103735.59;5014674;28;20060;-83
2022/03/18 09:17:20;;;;;;;1999.90;999.90;;;;;;;5.94;100.00;103724.25;5004769;28;20057;-81
2022/03/18 09:19:48;;;;;;;1999.90;999.90;;;;;;;6.05;100.00;103733.88;5008260;28;20079;-82
2022/03/18 09:22:22;;;;;;;1999.90;999.90;;;;;;;6.17;100.00;103731.63;5003447;28;20053;-83
2022/03/18 09:24:50;;;;;;;1999.90;999.90;;;;;;;6.39;100.00;103738.13;5010176;28;20068;-82
2022/03/18 09:27:23;;;;;;;1999.90;999.90;;;;;;;6.28;100.00;103736.69;5004105;28;20068;-83
2022/03/18 09:29:52;;;;;;;1999.90;999.90;;;;;;;6.15;100.00;103730.16;5004642;28;20053;-81
2022/03/18 09:32:21;;;;;;;1999.90;999.90;;;;;;;6.01;100.00;103740.66;4998151;28;20533;-80
2022/03/18 09:34:54;;;;;;;1999.90;999.90;;;;;;;6.03;100.00;103744.03;5000002;28;20100;-82
2022/03/18 09:37:23;;;;;;;1999.90;999.90;;;;;;;6.13;100.00;103750.09;5012420;28;20048;-84
2022/03/18 09:39:56;;;;;;;1999.90;999.90;;;;;;;6.25;100.00;103763.22;5006448;28;20045;-81
2022/03/18 09:42:30;;;;;;;1999.90;999.90;;;;;;;6.24;100.00;103770.50;5002842;28;20056;-82
2022/03/18 09:45:05;;;;;;;1999.90;999.90;;;;;;;6.15;100.00;103768.84;5000359;28;20053;-82
2022/03/18 09:47:33;;;;;;;1999.90;999.90;;;;;;;6.27;100.00;103770.16;5000429;28;20049;-82
2022/03/18 09:50:07;;;;;;;1999.90;999.90;;;;;;;6.29;100.00;103764.56;5007007;28;20068;-80
2022/03/18 09:52:36;;;;;;;1999.90;999.90;;;;;;;6.32;100.00;103772.31;5007158;28;20414;-81
2022/03/18 09:55:05;;;;;;;1999.90;999.90;;;;;;;6.32;100.00;103785.00;5004521;28;20061;-81
2022/03/18 09:57:38;;;;;;;1999.90;999.90;;;;;;;6.22;100.00;103796.88;5002080;28;20486;-80
2022/03/18 10:00:14;;;;;;;1999.90;999.90;;;;;;;6.47;100.00;103792.19;5003249;28;20061;-79
2022/03/18 10:02:43;;;;;;;1999.90;999.90;;;;;;;6.51;100.00;103792.72;5004344;28;20520;-80
2022/03/18 10:05:13;;;;;;;1999.90;999.90;;;;;;;6.43;100.00;103795.44;5000170;28;20057;-82
2022/03/18 10:07:54;;;;;;;1999.90;999.90;;;;;;;6.22;100.00;103755.47;5005423;28;20056;-82
2022/03/18 10:10:23;;;;;;;1999.90;999.90;;;;;;;6.33;100.00;103801.06;5002080;28;20061;-81
2022/03/18 10:13:01;;;;;;;1999.90;999.90;;;;;;;6.27;100.00;103780.97;5006945;28;20763;-82
2022/03/18 10:15:31;;;;;;;1980.53;999.90;;;;;;;6.42;100.00;103805.44;4991980;28;20050;-81
2022/03/18 10:18:04;;;;;;;1914.22;999.90;;;;;;;6.41;100.00;103800.22;5020357;28;20057;-80
2022/03/18 10:20:39;;;;;;;1840.80;999.90;;;;;;;6.49;100.00;103793.91;5007415;28;20148;-79
2022/03/18 10:23:21;;;;;;;1815.55;999.90;;;;;;;6.47;100.00;103783.25;5005289;28;20056;-80
2022/03/18 10:25:51;;;;;;;1871.18;999.90;;;;;;;6.68;100.00;103784.50;5005573;28;20052;-80
2022/03/18 10:28:36;;;;;;;1893.75;999.90;;;;;;;6.78;100.00;103791.41;4998930;28;20057;-81
2022/03/18 10:31:14;;;;;;;1904.30;999.90;;;;;;;7.00;100.00;103794.28;5013829;28;20049;-79
2022/03/18 10:37:04;;;;;;;1906.28;999.90;;;;;;;6.95;100.00;103792.13;5022021;28;20061;-81
2022/03/18 10:39:36;;;;;;;1782.57;999.90;;;;;;;7.12;100.00;103811.00;5006979;28;20060;-80
2022/03/18 10:42:11;;;;;;;1699.25;999.90;;;;;;;7.26;100.00;103793.13;5008338;28;20050;-81
2022/03/18 10:44:48;;;;;;;1659.32;999.90;;;;;;;7.21;100.00;103801.78;5005026;28;20061;-80
2022/03/18 10:47:31;;;;;;;1628.95;999.90;;;;;;;7.49;100.00;103799.34;5016080;28;20056;-80
2022/03/18 10:50:21;;;;;;;1601.00;999.90;;;;;;;7.32;100.00;103805.94;5001143;28;20057;-80
2022/03/18 10:53:10;;;;;;;1560.80;999.90;;;;;;;7.41;100.00;103788.59;5009215;28;20064;-82
2022/03/18 10:55:44;;;;;;;1557.63;999.90;;;;;;;7.51;100.00;103795.63;5008012;28;20054;-80
2022/03/18 10:58:19;;;;;;;1548.97;999.90;;;;;;;7.45;100.00;103798.03;5001555;28;20061;-80
2022/03/18 11:00:56;;;;;;;1530.50;999.90;;;;;;;7.71;100.00;103813.06;5007400;28;20064;-83
2022/03/18 11:03:26;;;;;;;1511.78;999.90;;;;;;;7.74;100.00;103811.88;5011835;28;20429;-81
2022/03/18 11:05:55;;;;;;;1493.22;999.90;;;;;;;7.86;100.00;103807.69;5003062;28;20068;-84
2022/03/18 11:08:26;;;;;;;1455.97;999.90;;;;;;;7.95;100.00;103803.00;5007628;28;20053;-83
2022/03/18 11:11:11;;;;;;;1409.25;999.90;;;;;;;7.86;100.00;103810.41;5001442;28;20064;-81
2022/03/18 11:13:51;;;;;;;1380.95;999.90;;;;;;;7.90;100.00;103805.44;5000859;28;20068;-82
2022/03/18 11:16:28;;;;;;;1353.03;999.90;;;;;;;8.13;100.00;103795.38;5001983;28;20053;-82
2022/03/18 11:19:00;;;;;;;1327.88;999.90;;;;;;;8.17;100.00;103804.81;5003928;28;20068;-81
2022/03/18 11:21:38;;;;;;;1307.82;999.90;;;;;;;8.14;100.00;103810.59;5002760;28;20776;-81
2022/03/18 11:24:14;;;;;;;1281.68;999.90;;;;;;;8.22;100.00;103808.84;4999884;28;20060;-81